sensor_id;sensor_type;location;lat;lon;timestamp;P1;durP1;ratioP1;P2;durP2;ratioP2
48550;SDS011;34397;51.176;6.738;2023-02-27T00:02:00;6.35;;;2.10;;
48550;SDS011;34397;51.176;6.738;2023-02-27T00:04:32;3.38;;;1.83;;
48550;SDS011;34397;51.176;6.738;2023-02-27T00:07:05;3.30;;;1.80;;
48550;SDS011;34397;51.176;6.738;2023-02-27T00:09:37;4.40;;;2.00;;
48550;SDS011;34397;51.176;6.738;2023-02-27T00:12:11;4.57;;;1.80;;
48550;SDS011;34397;51.176;6.738;2023-02-27T00:14:42;4.85;;;1.67;;
48550;SDS011;34397;51.176;6.738;2023-02-27T00:17:14;6.55;;;1.80;;
48550;SDS011;34397;51.176;6.738;2023-02-27T00:19:46;4.65;;;1.77;;
48550;SDS011;34397;51.176;6.738;2023-02-27T00:22:19;6.22;;;2.10;;
48550;SDS011;34397;51.176;6.738;2023-02-27T00:24:51;8.67;;;2.30;;
48550;SDS011;34397;51.176;6.738;2023-02-27T00:27:23;3.28;;;1.63;;
48550;SDS011;34397;51.176;6.738;2023-02-27T00:29:55;7.45;;;2.10;;
48550;SDS011;34397;51.176;6.738;2023-02-27T00:32:27;3.20;;;1.90;;
48550;SDS011;34397;51.176;6.738;2023-02-27T00:34:59;3.17;;;1.83;;
48550;SDS011;34397;51.176;6.738;2023-02-27T00:37:32;2.65;;;1.75;;
48550;SDS011;34397;51.176;6.738;2023-02-27T00:40:05;3.80;;;2.00;;
48550;SDS011;34397;51.176;6.738;2023-02-27T00:42:38;5.70;;;2.10;;
48550;SDS011;34397;51.176;6.738;2023-02-27T00:45:10;6.35;;;2.22;;
48550;SDS011;34397;51.176;6.738;2023-02-27T00:47:42;6.00;;;2.88;;
48550;SDS011;34397;51.176;6.738;2023-02-27T00:50:14;4.97;;;2.10;;
48550;SDS011;34397;51.176;6.738;2023-02-27T00:52:49;4.07;;;2.08;;
48550;SDS011;34397;51.176;6.738;2023-02-27T00:55:21;6.53;;;2.27;;
48550;SDS011;34397;51.176;6.738;2023-02-27T00:57:52;3.38;;;2.00;;
48550;SDS011;34397;51.176;6.738;2023-02-27T01:00:25;3.55;;;2.15;;
48550;SDS011;34397;51.176;6.738;2023-02-27T01:05:29;4.57;;;2.30;;
48550;SDS011;34397;51.176;6.738;2023-02-27T01:08:02;5.50;;;2.47;;
48550;SDS011;34397;51.176;6.738;2023-02-27T01:10:34;6.83;;;2.83;;
48550;SDS011;34397;51.176;6.738;2023-02-27T01:13:06;3.58;;;2.10;;
48550;SDS011;34397;51.176;6.738;2023-02-27T01:15:38;4.68;;;2.17;;
48550;SDS011;34397;51.176;6.738;2023-02-27T01:18:10;6.15;;;2.55;;
48550;SDS011;34397;51.176;6.738;2023-02-27T01:20:42;10.35;;;2.80;;
48550;SDS011;34397;51.176;6.738;2023-02-27T01:23:15;5.63;;;2.58;;
48550;SDS011;34397;51.176;6.738;2023-02-27T01:25:47;6.50;;;2.70;;
48550;SDS011;34397;51.176;6.738;2023-02-27T01:28:19;5.67;;;2.53;;
48550;SDS011;34397;51.176;6.738;2023-02-27T01:30:51;4.68;;;2.50;;
48550;SDS011;34397;51.176;6.738;2023-02-27T01:33:23;5.47;;;2.65;;
48550;SDS011;34397;51.176;6.738;2023-02-27T01:35:55;7.22;;;3.10;;
48550;SDS011;34397;51.176;6.738;2023-02-27T01:38:28;5.32;;;2.63;;
48550;SDS011;34397;51.176;6.738;2023-02-27T01:41:00;5.80;;;2.90;;
48550;SDS011;34397;51.176;6.738;2023-02-27T01:46:28;5.03;;;2.50;;
48550;SDS011;34397;51.176;6.738;2023-02-27T01:49:02;6.53;;;2.90;;
48550;SDS011;34397;51.176;6.738;2023-02-27T01:51:39;5.07;;;2.60;;
48550;SDS011;34397;51.176;6.738;2023-02-27T01:54:24;3.43;;;2.50;;
48550;SDS011;34397;51.176;6.738;2023-02-27T01:56:56;7.33;;;2.67;;
48550;SDS011;34397;51.176;6.738;2023-02-27T01:59:31;6.10;;;2.90;;
48550;SDS011;34397;51.176;6.738;2023-02-27T02:02:06;6.07;;;2.90;;
48550;SDS011;34397;51.176;6.738;2023-02-27T02:04:44;6.37;;;3.00;;
48550;SDS011;34397;51.176;6.738;2023-02-27T02:07:17;4.88;;;2.50;;
48550;SDS011;34397;51.176;6.738;2023-02-27T02:09:51;4.67;;;2.80;;
48550;SDS011;34397;51.176;6.738;2023-02-27T02:12:26;5.50;;;2.77;;
48550;SDS011;34397;51.176;6.738;2023-02-27T02:15:03;4.53;;;2.80;;
48550;SDS011;34397;51.176;6.738;2023-02-27T02:17:39;5.30;;;2.73;;
48550;SDS011;34397;51.176;6.738;2023-02-27T02:23:35;5.20;;;2.73;;
48550;SDS011;34397;51.176;6.738;2023-02-27T02:26:59;6.47;;;2.80;;
48550;SDS011;34397;51.176;6.738;2023-02-27T02:33:01;5.13;;;2.90;;
48550;SDS011;34397;51.176;6.738;2023-02-27T02:39:28;4.65;;;2.60;;
48550;SDS011;34397;51.176;6.738;2023-02-27T02:42:37;8.27;;;2.80;;
48550;SDS011;34397;51.176;6.738;2023-02-27T02:45:21;6.47;;;2.97;;
48550;SDS011;34397;51.176;6.738;2023-02-27T02:48:03;5.77;;;2.50;;
48550;SDS011;34397;51.176;6.738;2023-02-27T02:50:47;5.90;;;2.90;;
48550;SDS011;34397;51.176;6.738;2023-02-27T02:53:27;6.53;;;2.83;;
48550;SDS011;34397;51.176;6.738;2023-02-27T02:56:09;6.50;;;3.03;;
48550;SDS011;34397;51.176;6.738;2023-02-27T02:58:47;5.60;;;2.67;;
48550;SDS011;34397;51.176;6.738;2023-02-27T03:01:29;4.70;;;3.08;;
48550;SDS011;34397;51.176;6.738;2023-02-27T03:04:05;5.63;;;3.10;;
48550;SDS011;34397;51.176;6.738;2023-02-27T03:06:41;5.83;;;2.80;;
48550;SDS011;34397;51.176;6.738;2023-02-27T03:09:20;6.20;;;2.83;;
48550;SDS011;34397;51.176;6.738;2023-02-27T03:11:57;4.73;;;2.60;;
48550;SDS011;34397;51.176;6.738;2023-02-27T03:14:32;5.53;;;3.13;;
48550;SDS011;34397;51.176;6.738;2023-02-27T03:17:08;5.60;;;2.73;;
48550;SDS011;34397;51.176;6.738;2023-02-27T03:19:49;4.30;;;2.40;;
48550;SDS011;34397;51.176;6.738;2023-02-27T03:22:28;5.67;;;2.93;;
48550;SDS011;34397;51.176;6.738;2023-02-27T03:25:06;4.87;;;2.80;;
48550;SDS011;34397;51.176;6.738;2023-02-27T03:27:43;6.53;;;2.87;;
48550;SDS011;34397;51.176;6.738;2023-02-27T03:30:22;5.33;;;2.67;;
48550;SDS011;34397;51.176;6.738;2023-02-27T03:33:03;5.63;;;3.13;;
48550;SDS011;34397;51.176;6.738;2023-02-27T03:35:42;5.57;;;2.73;;
48550;SDS011;34397;51.176;6.738;2023-02-27T03:38:22;6.63;;;3.03;;
48550;SDS011;34397;51.176;6.738;2023-02-27T03:41:03;8.87;;;2.80;;
48550;SDS011;34397;51.176;6.738;2023-02-27T03:46:22;5.10;;;2.60;;
48550;SDS011;34397;51.176;6.738;2023-02-27T03:48:56;5.93;;;3.17;;
48550;SDS011;34397;51.176;6.738;2023-02-27T03:51:28;5.65;;;2.67;;
48550;SDS011;34397;51.176;6.738;2023-02-27T03:54:02;4.82;;;2.97;;
48550;SDS011;34397;51.176;6.738;2023-02-27T03:56:40;6.37;;;2.73;;
48550;SDS011;34397;51.176;6.738;2023-02-27T03:59:18;5.70;;;3.00;;
48550;SDS011;34397;51.176;6.738;2023-02-27T04:01:51;4.87;;;3.07;;
48550;SDS011;34397;51.176;6.738;2023-02-27T04:04:24;6.50;;;2.57;;
48550;SDS011;34397;51.176;6.738;2023-02-27T04:06:59;5.87;;;3.23;;
48550;SDS011;34397;51.176;6.738;2023-02-27T04:09:57;5.43;;;2.90;;
48550;SDS011;34397;51.176;6.738;2023-02-27T04:16:00;5.40;;;3.10;;
48550;SDS011;34397;51.176;6.738;2023-02-27T04:18:55;7.43;;;2.97;;
48550;SDS011;34397;51.176;6.738;2023-02-27T04:21:45;4.60;;;2.73;;
48550;SDS011;34397;51.176;6.738;2023-02-27T04:24:29;5.37;;;3.20;;
48550;SDS011;34397;51.176;6.738;2023-02-27T04:27:07;5.17;;;3.10;;
48550;SDS011;34397;51.176;6.738;2023-02-27T04:29:52;5.57;;;3.63;;
48550;SDS011;34397;51.176;6.738;2023-02-27T04:32:29;6.13;;;3.00;;
48550;SDS011;34397;51.176;6.738;2023-02-27T04:35:09;7.70;;;3.10;;
48550;SDS011;34397;51.176;6.738;2023-02-27T04:37:51;5.67;;;3.10;;
48550;SDS011;34397;51.176;6.738;2023-02-27T04:40:31;6.60;;;3.20;;
48550;SDS011;34397;51.176;6.738;2023-02-27T04:43:08;6.97;;;3.27;;
48550;SDS011;34397;51.176;6.738;2023-02-27T04:45:43;7.77;;;3.50;;
48550;SDS011;34397;51.176;6.738;2023-02-27T04:48:20;4.70;;;3.10;;
48550;SDS011;34397;51.176;6.738;2023-02-27T04:50:56;5.90;;;3.60;;
48550;SDS011;34397;51.176;6.738;2023-02-27T04:53:36;7.97;;;3.47;;
48550;SDS011;34397;51.176;6.738;2023-02-27T04:56:16;5.47;;;3.23;;
48550;SDS011;34397;51.176;6.738;2023-02-27T04:58:54;5.73;;;3.33;;
48550;SDS011;34397;51.176;6.738;2023-02-27T05:01:30;4.60;;;3.00;;
48550;SDS011;34397;51.176;6.738;2023-02-27T05:04:12;6.90;;;3.37;;
48550;SDS011;34397;51.176;6.738;2023-02-27T05:06:49;5.27;;;2.70;;
48550;SDS011;34397;51.176;6.738;2023-02-27T05:09:25;4.63;;;2.90;;
48550;SDS011;34397;51.176;6.738;2023-02-27T05:12:09;5.67;;;3.00;;
48550;SDS011;34397;51.176;6.738;2023-02-27T05:14:48;7.37;;;3.07;;
48550;SDS011;34397;51.176;6.738;2023-02-27T05:17:25;7.47;;;3.63;;
48550;SDS011;34397;51.176;6.738;2023-02-27T05:20:02;5.57;;;3.23;;
48550;SDS011;34397;51.176;6.738;2023-02-27T05:22:38;6.73;;;3.20;;
48550;SDS011;34397;51.176;6.738;2023-02-27T05:25:19;4.93;;;2.93;;
48550;SDS011;34397;51.176;6.738;2023-02-27T05:30:35;7.60;;;3.50;;
48550;SDS011;34397;51.176;6.738;2023-02-27T05:33:14;6.67;;;3.00;;
48550;SDS011;34397;51.176;6.738;2023-02-27T05:35:53;5.90;;;3.20;;
48550;SDS011;34397;51.176;6.738;2023-02-27T05:38:32;7.63;;;3.30;;
48550;SDS011;34397;51.176;6.738;2023-02-27T05:41:10;5.03;;;3.27;;
48550;SDS011;34397;51.176;6.738;2023-02-27T05:43:45;7.97;;;3.40;;
48550;SDS011;34397;51.176;6.738;2023-02-27T05:46:21;6.10;;;3.20;;
48550;SDS011;34397;51.176;6.738;2023-02-27T05:49:00;5.90;;;3.53;;
48550;SDS011;34397;51.176;6.738;2023-02-27T05:51:38;6.20;;;3.20;;
48550;SDS011;34397;51.176;6.738;2023-02-27T05:54:15;5.63;;;3.30;;
48550;SDS011;34397;51.176;6.738;2023-02-27T05:56:54;8.13;;;3.70;;
48550;SDS011;34397;51.176;6.738;2023-02-27T05:59:30;5.73;;;3.13;;
48550;SDS011;34397;51.176;6.738;2023-02-27T06:02:08;8.53;;;3.20;;
48550;SDS011;34397;51.176;6.738;2023-02-27T06:04:40;8.60;;;3.47;;
48550;SDS011;34397;51.176;6.738;2023-02-27T06:07:14;6.53;;;3.27;;
48550;SDS011;34397;51.176;6.738;2023-02-27T06:09:46;6.93;;;3.80;;
48550;SDS011;34397;51.176;6.738;2023-02-27T06:12:19;6.23;;;3.30;;
48550;SDS011;34397;51.176;6.738;2023-02-27T06:14:51;10.57;;;3.47;;
48550;SDS011;34397;51.176;6.738;2023-02-27T06:17:23;4.40;;;2.92;;
48550;SDS011;34397;51.176;6.738;2023-02-27T06:19:55;7.35;;;3.45;;
48550;SDS011;34397;51.176;6.738;2023-02-27T06:22:28;6.78;;;3.47;;
48550;SDS011;34397;51.176;6.738;2023-02-27T06:25:00;7.33;;;3.53;;
48550;SDS011;34397;51.176;6.738;2023-02-27T06:27:32;8.13;;;3.72;;
48550;SDS011;34397;51.176;6.738;2023-02-27T06:30:04;6.10;;;3.03;;
48550;SDS011;34397;51.176;6.738;2023-02-27T06:32:38;7.33;;;3.70;;
48550;SDS011;34397;51.176;6.738;2023-02-27T06:35:10;10.45;;;4.20;;
48550;SDS011;34397;51.176;6.738;2023-02-27T06:37:43;7.40;;;3.92;;
48550;SDS011;34397;51.176;6.738;2023-02-27T06:40:15;6.83;;;4.00;;
48550;SDS011;34397;51.176;6.738;2023-02-27T06:42:48;7.73;;;3.70;;
48550;SDS011;34397;51.176;6.738;2023-02-27T06:45:20;12.98;;;3.85;;
48550;SDS011;34397;51.176;6.738;2023-02-27T06:47:53;7.13;;;4.10;;
48550;SDS011;34397;51.176;6.738;2023-02-27T06:50:24;9.82;;;3.90;;
48550;SDS011;34397;51.176;6.738;2023-02-27T06:52:59;7.90;;;3.43;;
48550;SDS011;34397;51.176;6.738;2023-02-27T06:55:30;8.50;;;3.97;;
48550;SDS011;34397;51.176;6.738;2023-02-27T06:58:02;14.55;;;3.92;;
48550;SDS011;34397;51.176;6.738;2023-02-27T07:00:34;7.78;;;3.70;;
48550;SDS011;34397;51.176;6.738;2023-02-27T07:03:06;8.88;;;3.75;;
48550;SDS011;34397;51.176;6.738;2023-02-27T07:05:39;11.50;;;4.53;;
48550;SDS011;34397;51.176;6.738;2023-02-27T07:08:12;5.73;;;3.90;;
48550;SDS011;34397;51.176;6.738;2023-02-27T07:10:46;11.00;;;4.83;;
48550;SDS011;34397;51.176;6.738;2023-02-27T07:13:19;9.23;;;3.60;;
48550;SDS011;34397;51.176;6.738;2023-02-27T07:15:50;8.90;;;3.95;;
48550;SDS011;34397;51.176;6.738;2023-02-27T07:18:23;6.15;;;3.63;;
48550;SDS011;34397;51.176;6.738;2023-02-27T07:20:54;7.00;;;4.30;;
48550;SDS011;34397;51.176;6.738;2023-02-27T07:23:28;9.93;;;4.30;;
48550;SDS011;34397;51.176;6.738;2023-02-27T07:25:59;8.30;;;4.10;;
48550;SDS011;34397;51.176;6.738;2023-02-27T07:28:31;7.35;;;3.83;;
48550;SDS011;34397;51.176;6.738;2023-02-27T07:31:03;6.32;;;3.78;;
48550;SDS011;34397;51.176;6.738;2023-02-27T07:33:35;8.13;;;4.03;;
48550;SDS011;34397;51.176;6.738;2023-02-27T07:36:07;8.15;;;3.80;;
48550;SDS011;34397;51.176;6.738;2023-02-27T07:38:40;7.57;;;3.55;;
48550;SDS011;34397;51.176;6.738;2023-02-27T07:41:13;5.83;;;3.63;;
48550;SDS011;34397;51.176;6.738;2023-02-27T07:43:44;8.15;;;3.60;;
48550;SDS011;34397;51.176;6.738;2023-02-27T07:46:16;10.57;;;5.13;;
48550;SDS011;34397;51.176;6.738;2023-02-27T07:48:48;8.55;;;3.83;;
48550;SDS011;34397;51.176;6.738;2023-02-27T07:51:20;14.93;;;4.55;;
48550;SDS011;34397;51.176;6.738;2023-02-27T07:53:54;7.03;;;3.72;;
48550;SDS011;34397;51.176;6.738;2023-02-27T07:56:27;6.27;;;4.00;;
48550;SDS011;34397;51.176;6.738;2023-02-27T07:58:59;14.38;;;4.47;;
48550;SDS011;34397;51.176;6.738;2023-02-27T08:01:31;8.20;;;3.80;;
48550;SDS011;34397;51.176;6.738;2023-02-27T08:04:03;7.78;;;4.18;;
48550;SDS011;34397;51.176;6.738;2023-02-27T08:06:34;8.27;;;3.95;;
48550;SDS011;34397;51.176;6.738;2023-02-27T08:09:08;9.13;;;4.07;;
48550;SDS011;34397;51.176;6.738;2023-02-27T08:11:40;9.23;;;4.00;;
48550;SDS011;34397;51.176;6.738;2023-02-27T08:14:12;10.27;;;4.13;;
48550;SDS011;34397;51.176;6.738;2023-02-27T08:16:43;8.30;;;4.53;;
48550;SDS011;34397;51.176;6.738;2023-02-27T08:19:15;6.57;;;3.85;;
48550;SDS011;34397;51.176;6.738;2023-02-27T08:21:47;6.35;;;3.85;;
48550;SDS011;34397;51.176;6.738;2023-02-27T08:24:20;7.47;;;3.47;;
48550;SDS011;34397;51.176;6.738;2023-02-27T08:26:52;6.27;;;3.90;;
48550;SDS011;34397;51.176;6.738;2023-02-27T08:29:24;8.07;;;3.97;;
48550;SDS011;34397;51.176;6.738;2023-02-27T08:34:28;6.07;;;3.83;;
48550;SDS011;34397;51.176;6.738;2023-02-27T08:37:00;7.00;;;3.88;;
48550;SDS011;34397;51.176;6.738;2023-02-27T08:39:33;6.85;;;3.72;;
48550;SDS011;34397;51.176;6.738;2023-02-27T08:42:05;9.50;;;3.97;;
48550;SDS011;34397;51.176;6.738;2023-02-27T08:44:37;7.85;;;4.05;;
48550;SDS011;34397;51.176;6.738;2023-02-27T08:47:09;8.13;;;3.75;;
48550;SDS011;34397;51.176;6.738;2023-02-27T08:49:41;6.10;;;3.58;;
48550;SDS011;34397;51.176;6.738;2023-02-27T08:52:13;7.18;;;3.60;;
48550;SDS011;34397;51.176;6.738;2023-02-27T08:54:46;6.25;;;3.92;;
48550;SDS011;34397;51.176;6.738;2023-02-27T08:57:18;11.67;;;3.70;;
48550;SDS011;34397;51.176;6.738;2023-02-27T08:59:49;10.13;;;3.50;;
48550;SDS011;34397;51.176;6.738;2023-02-27T09:02:21;10.05;;;3.40;;
48550;SDS011;34397;51.176;6.738;2023-02-27T09:04:55;5.90;;;3.63;;
48550;SDS011;34397;51.176;6.738;2023-02-27T09:07:28;9.88;;;3.75;;
48550;SDS011;34397;51.176;6.738;2023-02-27T09:10:01;7.68;;;3.50;;
48550;SDS011;34397;51.176;6.738;2023-02-27T09:12:35;6.57;;;3.57;;
48550;SDS011;34397;51.176;6.738;2023-02-27T09:15:07;7.82;;;3.67;;
48550;SDS011;34397;51.176;6.738;2023-02-27T09:17:41;6.07;;;3.13;;
48550;SDS011;34397;51.176;6.738;2023-02-27T09:20:13;5.72;;;2.72;;
48550;SDS011;34397;51.176;6.738;2023-02-27T09:22:44;4.80;;;2.65;;
48550;SDS011;34397;51.176;6.738;2023-02-27T09:25:18;5.78;;;3.00;;
48550;SDS011;34397;51.176;6.738;2023-02-27T09:27:50;5.23;;;2.80;;
48550;SDS011;34397;51.176;6.738;2023-02-27T09:30:21;7.55;;;2.30;;
48550;SDS011;34397;51.176;6.738;2023-02-27T09:35:25;4.47;;;2.00;;
48550;SDS011;34397;51.176;6.738;2023-02-27T09:37:57;2.75;;;1.80;;
48550;SDS011;34397;51.176;6.738;2023-02-27T09:43:10;2.63;;;1.57;;
48550;SDS011;34397;51.176;6.738;2023-02-27T09:45:50;6.83;;;1.17;;
48550;SDS011;34397;51.176;6.738;2023-02-27T09:48:27;2.63;;;1.37;;
48550;SDS011;34397;51.176;6.738;2023-02-27T09:51:03;3.77;;;1.23;;
48550;SDS011;34397;51.176;6.738;2023-02-27T09:53:35;2.00;;;1.17;;
48550;SDS011;34397;51.176;6.738;2023-02-27T09:56:14;3.50;;;1.30;;
48550;SDS011;34397;51.176;6.738;2023-02-27T10:01:29;4.13;;;1.20;;
48550;SDS011;34397;51.176;6.738;2023-02-27T10:04:13;3.93;;;0.93;;
48550;SDS011;34397;51.176;6.738;2023-02-27T10:07:01;4.97;;;1.63;;
48550;SDS011;34397;51.176;6.738;2023-02-27T10:09:45;2.93;;;1.10;;
48550;SDS011;34397;51.176;6.738;2023-02-27T10:12:33;5.43;;;1.40;;
48550;SDS011;34397;51.176;6.738;2023-02-27T10:15:19;3.63;;;0.93;;
48550;SDS011;34397;51.176;6.738;2023-02-27T10:17:57;4.13;;;1.40;;
48550;SDS011;34397;51.176;6.738;2023-02-27T10:20:33;2.47;;;0.97;;
48550;SDS011;34397;51.176;6.738;2023-02-27T10:23:13;2.17;;;1.00;;
48550;SDS011;34397;51.176;6.738;2023-02-27T10:25:49;2.83;;;1.20;;
48550;SDS011;34397;51.176;6.738;2023-02-27T10:28:25;1.80;;;1.00;;
48550;SDS011;34397;51.176;6.738;2023-02-27T10:30:57;3.83;;;1.10;;
48550;SDS011;34397;51.176;6.738;2023-02-27T10:33:31;4.07;;;1.40;;
48550;SDS011;34397;51.176;6.738;2023-02-27T10:36:06;4.30;;;1.40;;
48550;SDS011;34397;51.176;6.738;2023-02-27T10:38:40;3.77;;;1.27;;
48550;SDS011;34397;51.176;6.738;2023-02-27T10:41:15;3.70;;;1.43;;
48550;SDS011;34397;51.176;6.738;2023-02-27T10:43:50;3.20;;;1.00;;
48550;SDS011;34397;51.176;6.738;2023-02-27T10:46:27;2.95;;;0.80;;
48550;SDS011;34397;51.176;6.738;2023-02-27T10:49:01;2.63;;;1.20;;
48550;SDS011;34397;51.176;6.738;2023-02-27T10:51:43;3.22;;;0.90;;
48550;SDS011;34397;51.176;6.738;2023-02-27T10:54:19;2.05;;;1.17;;
48550;SDS011;34397;51.176;6.738;2023-02-27T10:56:53;3.15;;;1.05;;
48550;SDS011;34397;51.176;6.738;2023-02-27T10:59:30;3.13;;;1.15;;
48550;SDS011;34397;51.176;6.738;2023-02-27T11:02:17;6.13;;;1.17;;
48550;SDS011;34397;51.176;6.738;2023-02-27T11:04:53;9.73;;;1.13;;
48550;SDS011;34397;51.176;6.738;2023-02-27T11:07:30;2.40;;;1.30;;
48550;SDS011;34397;51.176;6.738;2023-02-27T11:10:14;1.63;;;1.00;;
48550;SDS011;34397;51.176;6.738;2023-02-27T11:12:57;1.27;;;0.73;;
48550;SDS011;34397;51.176;6.738;2023-02-27T11:15:33;5.07;;;1.30;;
48550;SDS011;34397;51.176;6.738;2023-02-27T11:18:17;6.85;;;1.50;;
48550;SDS011;34397;51.176;6.738;2023-02-27T11:20:59;3.65;;;0.98;;
48550;SDS011;34397;51.176;6.738;2023-02-27T11:23:50;3.75;;;1.20;;
48550;SDS011;34397;51.176;6.738;2023-02-27T11:26:30;2.15;;;0.98;;
48550;SDS011;34397;51.176;6.738;2023-02-27T11:29:11;2.22;;;0.88;;
48550;SDS011;34397;51.176;6.738;2023-02-27T11:31:49;3.75;;;1.10;;
48550;SDS011;34397;51.176;6.738;2023-02-27T11:34:25;4.45;;;1.00;;
48550;SDS011;34397;51.176;6.738;2023-02-27T11:37:00;2.70;;;1.42;;
48550;SDS011;34397;51.176;6.738;2023-02-27T11:39:36;3.42;;;1.20;;
48550;SDS011;34397;51.176;6.738;2023-02-27T11:42:20;3.53;;;1.13;;
48550;SDS011;34397;51.176;6.738;2023-02-27T11:44:57;2.50;;;1.23;;
48550;SDS011;34397;51.176;6.738;2023-02-27T11:47:34;2.95;;;1.35;;
48550;SDS011;34397;51.176;6.738;2023-02-27T11:50:16;3.88;;;1.13;;
48550;SDS011;34397;51.176;6.738;2023-02-27T11:53:20;4.55;;;1.33;;
48550;SDS011;34397;51.176;6.738;2023-02-27T11:56:24;2.53;;;1.20;;
48550;SDS011;34397;51.176;6.738;2023-02-27T11:59:03;3.65;;;1.02;;
48550;SDS011;34397;51.176;6.738;2023-02-27T12:01:45;2.83;;;1.20;;
48550;SDS011;34397;51.176;6.738;2023-02-27T12:04:27;1.67;;;0.82;;
48550;SDS011;34397;51.176;6.738;2023-02-27T12:07:11;2.50;;;1.00;;
48550;SDS011;34397;51.176;6.738;2023-02-27T12:09:53;4.68;;;0.90;;
48550;SDS011;34397;51.176;6.738;2023-02-27T12:12:32;2.85;;;1.20;;
48550;SDS011;34397;51.176;6.738;2023-02-27T12:15:17;3.47;;;0.90;;
48550;SDS011;34397;51.176;6.738;2023-02-27T12:18:02;2.65;;;1.10;;
48550;SDS011;34397;51.176;6.738;2023-02-27T12:20:42;2.15;;;0.80;;
48550;SDS011;34397;51.176;6.738;2023-02-27T12:23:22;2.83;;;1.10;;
48550;SDS011;34397;51.176;6.738;2023-02-27T12:26:01;3.90;;;1.00;;
48550;SDS011;34397;51.176;6.738;2023-02-27T12:28:45;1.92;;;0.80;;
48550;SDS011;34397;51.176;6.738;2023-02-27T12:31:28;2.95;;;1.13;;
48550;SDS011;34397;51.176;6.738;2023-02-27T12:34:16;3.33;;;1.05;;
48550;SDS011;34397;51.176;6.738;2023-02-27T12:37:01;3.60;;;1.17;;
48550;SDS011;34397;51.176;6.738;2023-02-27T12:39:36;2.47;;;0.85;;
48550;SDS011;34397;51.176;6.738;2023-02-27T12:42:25;2.97;;;1.02;;
48550;SDS011;34397;51.176;6.738;2023-02-27T12:45:28;2.05;;;0.85;;
48550;SDS011;34397;51.176;6.738;2023-02-27T12:48:32;2.40;;;0.95;;
48550;SDS011;34397;51.176;6.738;2023-02-27T12:51:20;7.60;;;1.10;;
48550;SDS011;34397;51.176;6.738;2023-02-27T12:54:09;1.83;;;0.80;;
48550;SDS011;34397;51.176;6.738;2023-02-27T12:56:53;2.88;;;0.88;;
48550;SDS011;34397;51.176;6.738;2023-02-27T12:59:39;3.47;;;1.15;;
48550;SDS011;34397;51.176;6.738;2023-02-27T13:02:33;1.98;;;0.93;;
48550;SDS011;34397;51.176;6.738;2023-02-27T13:05:25;1.92;;;0.90;;
48550;SDS011;34397;51.176;6.738;2023-02-27T13:11:09;2.55;;;0.82;;
48550;SDS011;34397;51.176;6.738;2023-02-27T13:13:54;2.45;;;0.90;;
48550;SDS011;34397;51.176;6.738;2023-02-27T13:16:32;4.18;;;1.17;;
48550;SDS011;34397;51.176;6.738;2023-02-27T13:19:09;2.05;;;0.98;;
48550;SDS011;34397;51.176;6.738;2023-02-27T13:21:45;5.10;;;0.98;;
48550;SDS011;34397;51.176;6.738;2023-02-27T13:24:23;1.45;;;0.70;;
48550;SDS011;34397;51.176;6.738;2023-02-27T13:26:59;1.98;;;1.08;;
48550;SDS011;34397;51.176;6.738;2023-02-27T13:29:38;4.82;;;0.93;;
48550;SDS011;34397;51.176;6.738;2023-02-27T13:32:20;2.03;;;0.80;;
48550;SDS011;34397;51.176;6.738;2023-02-27T13:34:57;1.83;;;0.90;;
48550;SDS011;34397;51.176;6.738;2023-02-27T13:37:55;3.67;;;0.90;;
48550;SDS011;34397;51.176;6.738;2023-02-27T13:40:34;1.08;;;0.73;;
48550;SDS011;34397;51.176;6.738;2023-02-27T13:46:19;1.83;;;0.65;;
48550;SDS011;34397;51.176;6.738;2023-02-27T13:48:53;1.45;;;0.90;;
48550;SDS011;34397;51.176;6.738;2023-02-27T13:54:30;4.03;;;1.17;;
48550;SDS011;34397;51.176;6.738;2023-02-27T13:59:56;2.17;;;1.00;;
48550;SDS011;34397;51.176;6.738;2023-02-27T14:02:42;3.03;;;1.00;;
48550;SDS011;34397;51.176;6.738;2023-02-27T14:05:25;3.38;;;1.08;;
48550;SDS011;34397;51.176;6.738;2023-02-27T14:08:05;2.80;;;1.10;;
48550;SDS011;34397;51.176;6.738;2023-02-27T14:10:49;3.22;;;1.08;;
48550;SDS011;34397;51.176;6.738;2023-02-27T14:16:53;3.17;;;1.30;;
48550;SDS011;34397;51.176;6.738;2023-02-27T14:25:46;3.38;;;1.17;;
48550;SDS011;34397;51.176;6.738;2023-02-27T14:28:22;3.28;;;1.10;;
48550;SDS011;34397;51.176;6.738;2023-02-27T14:31:00;1.75;;;0.93;;
48550;SDS011;34397;51.176;6.738;2023-02-27T14:33:35;3.45;;;1.23;;
48550;SDS011;34397;51.176;6.738;2023-02-27T14:36:16;6.78;;;1.00;;
48550;SDS011;34397;51.176;6.738;2023-02-27T14:38:52;2.58;;;0.93;;
48550;SDS011;34397;51.176;6.738;2023-02-27T14:41:29;2.72;;;1.10;;
48550;SDS011;34397;51.176;6.738;2023-02-27T14:44:16;2.03;;;1.10;;
48550;SDS011;34397;51.176;6.738;2023-02-27T14:46:50;1.92;;;0.80;;
48550;SDS011;34397;51.176;6.738;2023-02-27T14:49:24;1.77;;;0.80;;
48550;SDS011;34397;51.176;6.738;2023-02-27T14:52:10;2.53;;;0.95;;
48550;SDS011;34397;51.176;6.738;2023-02-27T14:54:48;3.45;;;0.82;;
48550;SDS011;34397;51.176;6.738;2023-02-27T14:57:22;2.88;;;1.15;;
48550;SDS011;34397;51.176;6.738;2023-02-27T14:59:56;2.00;;;1.00;;
48550;SDS011;34397;51.176;6.738;2023-02-27T15:02:28;3.17;;;1.02;;
48550;SDS011;34397;51.176;6.738;2023-02-27T15:05:13;3.85;;;1.38;;
48550;SDS011;34397;51.176;6.738;2023-02-27T15:07:52;3.13;;;1.00;;
48550;SDS011;34397;51.176;6.738;2023-02-27T15:10:25;2.22;;;1.00;;
48550;SDS011;34397;51.176;6.738;2023-02-27T15:13:00;3.38;;;1.27;;
48550;SDS011;34397;51.176;6.738;2023-02-27T15:15:32;2.78;;;1.05;;
48550;SDS011;34397;51.176;6.738;2023-02-27T15:18:10;2.45;;;0.80;;
48550;SDS011;34397;51.176;6.738;2023-02-27T15:20:44;3.33;;;1.05;;
48550;SDS011;34397;51.176;6.738;2023-02-27T15:23:22;1.65;;;0.88;;
48550;SDS011;34397;51.176;6.738;2023-02-27T15:25:56;2.47;;;0.95;;
48550;SDS011;34397;51.176;6.738;2023-02-27T15:28:30;5.00;;;1.30;;
48550;SDS011;34397;51.176;6.738;2023-02-27T15:31:08;3.30;;;1.20;;
48550;SDS011;34397;51.176;6.738;2023-02-27T15:33:48;4.30;;;1.58;;
48550;SDS011;34397;51.176;6.738;2023-02-27T15:36:22;5.68;;;1.40;;
48550;SDS011;34397;51.176;6.738;2023-02-27T15:39:12;2.33;;;1.00;;
48550;SDS011;34397;51.176;6.738;2023-02-27T15:41:47;3.70;;;1.20;;
48550;SDS011;34397;51.176;6.738;2023-02-27T15:44:23;3.33;;;1.20;;
48550;SDS011;34397;51.176;6.738;2023-02-27T15:46:57;4.95;;;1.25;;
48550;SDS011;34397;51.176;6.738;2023-02-27T15:49:29;2.55;;;1.15;;
48550;SDS011;34397;51.176;6.738;2023-02-27T15:52:03;1.63;;;0.98;;
48550;SDS011;34397;51.176;6.738;2023-02-27T15:54:46;6.18;;;1.30;;
48550;SDS011;34397;51.176;6.738;2023-02-27T15:57:23;3.20;;;1.20;;
48550;SDS011;34397;51.176;6.738;2023-02-27T15:59:56;3.10;;;1.13;;
48550;SDS011;34397;51.176;6.738;2023-02-27T16:02:31;5.18;;;1.60;;
48550;SDS011;34397;51.176;6.738;2023-02-27T16:05:14;2.40;;;1.40;;
48550;SDS011;34397;51.176;6.738;2023-02-27T16:07:48;4.60;;;1.42;;
48550;SDS011;34397;51.176;6.738;2023-02-27T16:10:23;2.88;;;1.45;;
48550;SDS011;34397;51.176;6.738;2023-02-27T16:12:58;3.83;;;1.40;;
48550;SDS011;34397;51.176;6.738;2023-02-27T16:15:59;3.47;;;1.42;;
48550;SDS011;34397;51.176;6.738;2023-02-27T16:18:33;5.20;;;2.15;;
48550;SDS011;34397;51.176;6.738;2023-02-27T16:21:10;6.05;;;1.80;;
48550;SDS011;34397;51.176;6.738;2023-02-27T16:23:44;2.85;;;1.40;;
48550;SDS011;34397;51.176;6.738;2023-02-27T16:26:21;3.60;;;1.50;;
48550;SDS011;34397;51.176;6.738;2023-02-27T16:28:59;4.38;;;1.33;;
48550;SDS011;34397;51.176;6.738;2023-02-27T16:31:34;3.90;;;1.52;;
48550;SDS011;34397;51.176;6.738;2023-02-27T16:34:12;3.90;;;1.60;;
48550;SDS011;34397;51.176;6.738;2023-02-27T16:36:52;2.45;;;1.45;;
48550;SDS011;34397;51.176;6.738;2023-02-27T16:39:27;5.88;;;2.10;;
48550;SDS011;34397;51.176;6.738;2023-02-27T16:42:00;3.10;;;1.65;;
48550;SDS011;34397;51.176;6.738;2023-02-27T16:44:32;3.70;;;1.63;;